sensor_id;sensor_type;location;lat;lon;timestamp;P1;durP1;ratioP1;P2;durP2;ratioP2
7426;SDS011;3755;59.316;18.092;2023-07-24T00:02:13;4.00;;;2.70;;
7426;SDS011;3755;59.316;18.092;2023-07-24T00:04:40;5.80;;;2.67;;
7426;SDS011;3755;59.316;18.092;2023-07-24T00:07:09;9.95;;;3.47;;
7426;SDS011;3755;59.316;18.092;2023-07-24T00:09:36;5.15;;;2.80;;
7426;SDS011;3755;59.316;18.092;2023-07-24T00:12:03;6.28;;;2.78;;
7426;SDS011;3755;59.316;18.092;2023-07-24T00:14:31;7.25;;;3.25;;
7426;SDS011;3755;59.316;18.092;2023-07-24T00:16:58;5.43;;;3.20;;
7426;SDS011;3755;59.316;18.092;2023-07-24T00:19:25;4.80;;;2.72;;
7426;SDS011;3755;59.316;18.092;2023-07-24T00:21:52;4.78;;;2.88;;
7426;SDS011;3755;59.316;18.092;2023-07-24T00:24:21;5.45;;;2.78;;
7426;SDS011;3755;59.316;18.092;2023-07-24T00:26:48;5.18;;;2.80;;
7426;SDS011;3755;59.316;18.092;2023-07-24T00:29:15;7.32;;;2.60;;
7426;SDS011;3755;59.316;18.092;2023-07-24T00:31:42;3.72;;;2.80;;
7426;SDS011;3755;59.316;18.092;2023-07-24T00:34:09;5.40;;;3.00;;
7426;SDS011;3755;59.316;18.092;2023-07-24T00:36:36;3.10;;;2.63;;
7426;SDS011;3755;59.316;18.092;2023-07-24T00:39:04;7.22;;;2.55;;
7426;SDS011;3755;59.316;18.092;2023-07-24T00:41:32;4.60;;;3.10;;
7426;SDS011;3755;59.316;18.092;2023-07-24T00:43:59;6.45;;;2.95;;
7426;SDS011;3755;59.316;18.092;2023-07-24T00:46:26;5.38;;;3.15;;
7426;SDS011;3755;59.316;18.092;2023-07-24T00:48:57;6.75;;;3.22;;
7426;SDS011;3755;59.316;18.092;2023-07-24T00:51:25;10.35;;;3.60;;
7426;SDS011;3755;59.316;18.092;2023-07-24T00:53:54;8.35;;;3.00;;
7426;SDS011;3755;59.316;18.092;2023-07-24T00:56:21;5.65;;;3.25;;
7426;SDS011;3755;59.316;18.092;2023-07-24T00:58:50;5.03;;;3.33;;
7426;SDS011;3755;59.316;18.092;2023-07-24T01:01:18;6.65;;;3.50;;
7426;SDS011;3755;59.316;18.092;2023-07-24T01:03:45;6.88;;;3.88;;
7426;SDS011;3755;59.316;18.092;2023-07-24T01:06:12;6.80;;;3.90;;
7426;SDS011;3755;59.316;18.092;2023-07-24T01:08:39;5.97;;;3.22;;
7426;SDS011;3755;59.316;18.092;2023-07-24T01:11:08;6.85;;;3.50;;
7426;SDS011;3755;59.316;18.092;2023-07-24T01:13:42;6.68;;;3.20;;
7426;SDS011;3755;59.316;18.092;2023-07-24T01:16:18;4.47;;;3.15;;
7426;SDS011;3755;59.316;18.092;2023-07-24T01:18:47;6.65;;;3.38;;
7426;SDS011;3755;59.316;18.092;2023-07-24T01:21:17;7.20;;;3.70;;
7426;SDS011;3755;59.316;18.092;2023-07-24T01:23:53;7.93;;;3.80;;
7426;SDS011;3755;59.316;18.092;2023-07-24T01:26:26;5.53;;;3.78;;
7426;SDS011;3755;59.316;18.092;2023-07-24T01:28:53;6.93;;;4.15;;
7426;SDS011;3755;59.316;18.092;2023-07-24T01:31:20;5.00;;;3.78;;
7426;SDS011;3755;59.316;18.092;2023-07-24T01:33:47;7.70;;;3.65;;
7426;SDS011;3755;59.316;18.092;2023-07-24T01:36:15;7.75;;;3.63;;
7426;SDS011;3755;59.316;18.092;2023-07-24T01:38:42;4.97;;;3.42;;
7426;SDS011;3755;59.316;18.092;2023-07-24T01:41:09;5.78;;;4.07;;
7426;SDS011;3755;59.316;18.092;2023-07-24T01:43:38;7.93;;;3.80;;
7426;SDS011;3755;59.316;18.092;2023-07-24T01:46:05;6.30;;;3.67;;
7426;SDS011;3755;59.316;18.092;2023-07-24T01:48:33;6.22;;;3.40;;
7426;SDS011;3755;59.316;18.092;2023-07-24T01:51:00;7.90;;;3.67;;
7426;SDS011;3755;59.316;18.092;2023-07-24T01:53:27;5.03;;;4.10;;
7426;SDS011;3755;59.316;18.092;2023-07-24T01:55:54;5.63;;;3.42;;
7426;SDS011;3755;59.316;18.092;2023-07-24T01:58:22;7.03;;;3.97;;
7426;SDS011;3755;59.316;18.092;2023-07-24T02:00:50;6.70;;;3.50;;
7426;SDS011;3755;59.316;18.092;2023-07-24T02:03:17;5.43;;;4.07;;
7426;SDS011;3755;59.316;18.092;2023-07-24T02:05:48;6.00;;;3.40;;
7426;SDS011;3755;59.316;18.092;2023-07-24T02:08:16;7.90;;;3.63;;
7426;SDS011;3755;59.316;18.092;2023-07-24T02:10:43;4.28;;;3.63;;
7426;SDS011;3755;59.316;18.092;2023-07-24T02:13:14;8.00;;;3.92;;
7426;SDS011;3755;59.316;18.092;2023-07-24T02:15:41;6.13;;;3.45;;
7426;SDS011;3755;59.316;18.092;2023-07-24T02:18:10;5.20;;;3.25;;
7426;SDS011;3755;59.316;18.092;2023-07-24T02:20:37;7.30;;;3.60;;
7426;SDS011;3755;59.316;18.092;2023-07-24T02:23:04;4.35;;;3.22;;
7426;SDS011;3755;59.316;18.092;2023-07-24T02:25:32;7.20;;;4.20;;
7426;SDS011;3755;59.316;18.092;2023-07-24T02:27:59;6.97;;;3.92;;
7426;SDS011;3755;59.316;18.092;2023-07-24T02:30:26;5.10;;;3.47;;
7426;SDS011;3755;59.316;18.092;2023-07-24T02:32:53;6.63;;;3.53;;
7426;SDS011;3755;59.316;18.092;2023-07-24T02:35:23;6.35;;;3.70;;
7426;SDS011;3755;59.316;18.092;2023-07-24T02:37:50;8.48;;;4.10;;
7426;SDS011;3755;59.316;18.092;2023-07-24T02:40:17;11.13;;;4.35;;
7426;SDS011;3755;59.316;18.092;2023-07-24T02:42:44;6.10;;;3.90;;
7426;SDS011;3755;59.316;18.092;2023-07-24T02:45:11;5.10;;;3.40;;
7426;SDS011;3755;59.316;18.092;2023-07-24T02:47:38;6.03;;;3.08;;
7426;SDS011;3755;59.316;18.092;2023-07-24T02:50:07;8.40;;;3.30;;
7426;SDS011;3755;59.316;18.092;2023-07-24T02:52:36;6.40;;;3.47;;
7426;SDS011;3755;59.316;18.092;2023-07-24T02:55:04;6.80;;;3.63;;
7426;SDS011;3755;59.316;18.092;2023-07-24T02:57:31;6.93;;;3.20;;
7426;SDS011;3755;59.316;18.092;2023-07-24T02:59:58;5.18;;;3.10;;
7426;SDS011;3755;59.316;18.092;2023-07-24T03:02:25;6.80;;;3.58;;
7426;SDS011;3755;59.316;18.092;2023-07-24T03:04:52;4.72;;;3.42;;
7426;SDS011;3755;59.316;18.092;2023-07-24T03:07:19;8.63;;;3.40;;
7426;SDS011;3755;59.316;18.092;2023-07-24T03:09:48;6.03;;;3.80;;
7426;SDS011;3755;59.316;18.092;2023-07-24T03:12:17;4.28;;;3.22;;
7426;SDS011;3755;59.316;18.092;2023-07-24T03:14:44;6.07;;;3.00;;
7426;SDS011;3755;59.316;18.092;2023-07-24T03:17:11;6.30;;;3.83;;
7426;SDS011;3755;59.316;18.092;2023-07-24T03:19:38;6.90;;;3.72;;
7426;SDS011;3755;59.316;18.092;2023-07-24T03:22:06;5.70;;;3.90;;
7426;SDS011;3755;59.316;18.092;2023-07-24T03:24:33;5.85;;;3.55;;
7426;SDS011;3755;59.316;18.092;2023-07-24T03:27:02;5.38;;;3.47;;
7426;SDS011;3755;59.316;18.092;2023-07-24T03:29:30;5.95;;;3.50;;
7426;SDS011;3755;59.316;18.092;2023-07-24T03:31:57;5.22;;;3.25;;
7426;SDS011;3755;59.316;18.092;2023-07-24T03:34:24;5.75;;;3.58;;
7426;SDS011;3755;59.316;18.092;2023-07-24T03:36:51;4.47;;;3.60;;
7426;SDS011;3755;59.316;18.092;2023-07-24T03:39:18;6.75;;;3.72;;
7426;SDS011;3755;59.316;18.092;2023-07-24T03:41:45;5.15;;;3.33;;
7426;SDS011;3755;59.316;18.092;2023-07-24T03:44:14;6.18;;;3.58;;
7426;SDS011;3755;59.316;18.092;2023-07-24T03:46:41;5.85;;;3.53;;
7426;SDS011;3755;59.316;18.092;2023-07-24T03:49:08;5.25;;;3.47;;
7426;SDS011;3755;59.316;18.092;2023-07-24T03:51:35;5.55;;;3.58;;
7426;SDS011;3755;59.316;18.092;2023-07-24T03:54:02;6.18;;;3.30;;
7426;SDS011;3755;59.316;18.092;2023-07-24T03:56:29;5.35;;;3.70;;
7426;SDS011;3755;59.316;18.092;2023-07-24T03:58:56;7.20;;;3.42;;
7426;SDS011;3755;59.316;18.092;2023-07-24T04:01:25;5.60;;;3.65;;
7426;SDS011;3755;59.316;18.092;2023-07-24T04:03:52;7.82;;;3.70;;
7426;SDS011;3755;59.316;18.092;2023-07-24T04:06:19;6.05;;;3.28;;
7426;SDS011;3755;59.316;18.092;2023-07-24T04:08:47;5.20;;;3.33;;
7426;SDS011;3755;59.316;18.092;2023-07-24T04:11:14;4.15;;;3.30;;
7426;SDS011;3755;59.316;18.092;2023-07-24T04:13:41;5.40;;;3.47;;
7426;SDS011;3755;59.316;18.092;2023-07-24T04:16:08;9.43;;;3.85;;
7426;SDS011;3755;59.316;18.092;2023-07-24T04:18:36;8.00;;;3.50;;
7426;SDS011;3755;59.316;18.092;2023-07-24T04:21:03;6.18;;;3.78;;
7426;SDS011;3755;59.316;18.092;2023-07-24T04:23:30;6.15;;;3.85;;
7426;SDS011;3755;59.316;18.092;2023-07-24T04:25:58;6.78;;;4.55;;
7426;SDS011;3755;59.316;18.092;2023-07-24T04:28:25;5.00;;;3.90;;
7426;SDS011;3755;59.316;18.092;2023-07-24T04:30:52;7.88;;;4.30;;
7426;SDS011;3755;59.316;18.092;2023-07-24T04:33:19;10.02;;;3.85;;
7426;SDS011;3755;59.316;18.092;2023-07-24T04:35:48;5.82;;;3.28;;
7426;SDS011;3755;59.316;18.092;2023-07-24T04:38:15;8.30;;;3.92;;
7426;SDS011;3755;59.316;18.092;2023-07-24T04:40:43;4.20;;;3.28;;
7426;SDS011;3755;59.316;18.092;2023-07-24T04:43:11;5.88;;;3.65;;
7426;SDS011;3755;59.316;18.092;2023-07-24T04:45:38;5.25;;;3.70;;
7426;SDS011;3755;59.316;18.092;2023-07-24T04:48:05;5.78;;;3.20;;
7426;SDS011;3755;59.316;18.092;2023-07-24T04:50:32;5.78;;;3.25;;
7426;SDS011;3755;59.316;18.092;2023-07-24T04:53:01;6.35;;;3.50;;
7426;SDS011;3755;59.316;18.092;2023-07-24T04:55:28;5.82;;;3.53;;
7426;SDS011;3755;59.316;18.092;2023-07-24T04:57:55;6.57;;;3.17;;
7426;SDS011;3755;59.316;18.092;2023-07-24T05:00:22;5.95;;;3.58;;
7426;SDS011;3755;59.316;18.092;2023-07-24T05:02:50;4.82;;;3.45;;
7426;SDS011;3755;59.316;18.092;2023-07-24T05:05:17;4.85;;;3.50;;
7426;SDS011;3755;59.316;18.092;2023-07-24T05:07:44;5.05;;;3.00;;
7426;SDS011;3755;59.316;18.092;2023-07-24T05:10:13;6.30;;;3.28;;
7426;SDS011;3755;59.316;18.092;2023-07-24T05:12:40;7.32;;;3.08;;
7426;SDS011;3755;59.316;18.092;2023-07-24T05:15:08;5.70;;;2.90;;
7426;SDS011;3755;59.316;18.092;2023-07-24T05:17:36;4.25;;;3.05;;
7426;SDS011;3755;59.316;18.092;2023-07-24T05:20:03;6.50;;;3.08;;
7426;SDS011;3755;59.316;18.092;2023-07-24T05:22:31;5.20;;;3.45;;
7426;SDS011;3755;59.316;18.092;2023-07-24T05:24:59;4.50;;;3.40;;
7426;SDS011;3755;59.316;18.092;2023-07-24T05:27:27;4.47;;;3.15;;
7426;SDS011;3755;59.316;18.092;2023-07-24T05:29:55;5.50;;;3.70;;
7426;SDS011;3755;59.316;18.092;2023-07-24T05:32:22;6.07;;;2.92;;
7426;SDS011;3755;59.316;18.092;2023-07-24T05:34:49;4.43;;;3.17;;
7426;SDS011;3755;59.316;18.092;2023-07-24T05:37:16;4.32;;;2.63;;
7426;SDS011;3755;59.316;18.092;2023-07-24T05:39:43;6.18;;;2.85;;
7426;SDS011;3755;59.316;18.092;2023-07-24T05:42:10;6.10;;;3.00;;
7426;SDS011;3755;59.316;18.092;2023-07-24T05:44:39;3.95;;;2.72;;
7426;SDS011;3755;59.316;18.092;2023-07-24T05:47:06;4.00;;;2.38;;
7426;SDS011;3755;59.316;18.092;2023-07-24T05:49:33;3.33;;;2.20;;
7426;SDS011;3755;59.316;18.092;2023-07-24T05:52:00;3.15;;;2.55;;
7426;SDS011;3755;59.316;18.092;2023-07-24T05:54:28;4.13;;;2.58;;
7426;SDS011;3755;59.316;18.092;2023-07-24T05:56:55;3.72;;;2.75;;
7426;SDS011;3755;59.316;18.092;2023-07-24T05:59:22;3.33;;;2.10;;
7426;SDS011;3755;59.316;18.092;2023-07-24T06:01:50;2.30;;;2.10;;
7426;SDS011;3755;59.316;18.092;2023-07-24T06:04:17;3.60;;;2.70;;
7426;SDS011;3755;59.316;18.092;2023-07-24T06:06:45;4.40;;;2.60;;
7426;SDS011;3755;59.316;18.092;2023-07-24T06:09:12;4.20;;;2.63;;
7426;SDS011;3755;59.316;18.092;2023-07-24T06:11:39;3.13;;;2.55;;
7426;SDS011;3755;59.316;18.092;2023-07-24T06:14:06;5.95;;;2.05;;
7426;SDS011;3755;59.316;18.092;2023-07-24T06:16:33;2.95;;;2.10;;
7426;SDS011;3755;59.316;18.092;2023-07-24T06:19:02;10.43;;;3.10;;
7426;SDS011;3755;59.316;18.092;2023-07-24T06:21:29;6.45;;;2.70;;
7426;SDS011;3755;59.316;18.092;2023-07-24T06:23:56;5.15;;;2.50;;
7426;SDS011;3755;59.316;18.092;2023-07-24T06:26:23;4.35;;;2.65;;
7426;SDS011;3755;59.316;18.092;2023-07-24T06:28:50;5.05;;;2.47;;
7426;SDS011;3755;59.316;18.092;2023-07-24T06:31:17;7.40;;;2.20;;
7426;SDS011;3755;59.316;18.092;2023-07-24T06:33:44;4.13;;;1.90;;
7426;SDS011;3755;59.316;18.092;2023-07-24T06:36:13;3.90;;;1.98;;
7426;SDS011;3755;59.316;18.092;2023-07-24T06:38:40;4.82;;;2.13;;
7426;SDS011;3755;59.316;18.092;2023-07-24T06:41:09;6.45;;;2.30;;
7426;SDS011;3755;59.316;18.092;2023-07-24T06:43:36;3.35;;;2.17;;
7426;SDS011;3755;59.316;18.092;2023-07-24T06:46:03;3.80;;;2.00;;
7426;SDS011;3755;59.316;18.092;2023-07-24T06:48:30;2.33;;;1.73;;
7426;SDS011;3755;59.316;18.092;2023-07-24T06:50:57;4.38;;;2.10;;
7426;SDS011;3755;59.316;18.092;2023-07-24T06:53:26;3.20;;;1.67;;
7426;SDS011;3755;59.316;18.092;2023-07-24T06:55:53;3.35;;;1.50;;
7426;SDS011;3755;59.316;18.092;2023-07-24T06:58:20;2.53;;;1.42;;
7426;SDS011;3755;59.316;18.092;2023-07-24T07:00:47;2.45;;;1.45;;
7426;SDS011;3755;59.316;18.092;2023-07-24T07:03:14;3.53;;;1.40;;
7426;SDS011;3755;59.316;18.092;2023-07-24T07:05:41;2.08;;;1.40;;
7426;SDS011;3755;59.316;18.092;2023-07-24T07:08:08;5.00;;;1.90;;
7426;SDS011;3755;59.316;18.092;2023-07-24T07:10:37;3.10;;;1.27;;
7426;SDS011;3755;59.316;18.092;2023-07-24T07:13:04;2.83;;;1.50;;
7426;SDS011;3755;59.316;18.092;2023-07-24T07:15:31;2.60;;;1.25;;
7426;SDS011;3755;59.316;18.092;2023-07-24T07:17:59;3.35;;;1.42;;
7426;SDS011;3755;59.316;18.092;2023-07-24T07:20:26;1.63;;;1.38;;
7426;SDS011;3755;59.316;18.092;2023-07-24T07:22:53;1.98;;;1.13;;
7426;SDS011;3755;59.316;18.092;2023-07-24T07:25:20;1.98;;;1.40;;
7426;SDS011;3755;59.316;18.092;2023-07-24T07:27:49;3.92;;;1.80;;
7426;SDS011;3755;59.316;18.092;2023-07-24T07:30:16;1.60;;;1.23;;
7426;SDS011;3755;59.316;18.092;2023-07-24T07:32:43;1.98;;;1.33;;
7426;SDS011;3755;59.316;18.092;2023-07-24T07:35:10;4.55;;;1.95;;
7426;SDS011;3755;59.316;18.092;2023-07-24T07:37:37;5.63;;;1.58;;
7426;SDS011;3755;59.316;18.092;2023-07-24T07:40:05;2.97;;;1.45;;
7426;SDS011;3755;59.316;18.092;2023-07-24T07:42:33;2.45;;;1.70;;
7426;SDS011;3755;59.316;18.092;2023-07-24T07:45:02;6.85;;;1.50;;
7426;SDS011;3755;59.316;18.092;2023-07-24T07:47:29;3.38;;;1.48;;
7426;SDS011;3755;59.316;18.092;2023-07-24T07:49:56;1.77;;;1.50;;
7426;SDS011;3755;59.316;18.092;2023-07-24T07:52:24;4.90;;;1.48;;
7426;SDS011;3755;59.316;18.092;2023-07-24T07:54:51;3.53;;;1.40;;
7426;SDS011;3755;59.316;18.092;2023-07-24T07:57:18;2.63;;;1.08;;
7426;SDS011;3755;59.316;18.092;2023-07-24T07:59:45;2.90;;;1.38;;
7426;SDS011;3755;59.316;18.092;2023-07-24T08:02:14;1.55;;;1.27;;
7426;SDS011;3755;59.316;18.092;2023-07-24T08:04:41;2.10;;;1.30;;
7426;SDS011;3755;59.316;18.092;2023-07-24T08:07:09;1.77;;;1.13;;
7426;SDS011;3755;59.316;18.092;2023-07-24T08:09:36;1.52;;;1.05;;
7426;SDS011;3755;59.316;18.092;2023-07-24T08:12:04;3.05;;;1.25;;
7426;SDS011;3755;59.316;18.092;2023-07-24T08:14:32;2.78;;;1.30;;
7426;SDS011;3755;59.316;18.092;2023-07-24T08:16:59;2.92;;;1.48;;
7426;SDS011;3755;59.316;18.092;2023-07-24T08:19:29;2.33;;;1.35;;
7426;SDS011;3755;59.316;18.092;2023-07-24T08:21:56;1.75;;;1.17;;
7426;SDS011;3755;59.316;18.092;2023-07-24T08:24:23;4.88;;;1.30;;
7426;SDS011;3755;59.316;18.092;2023-07-24T08:26:50;3.08;;;1.48;;
7426;SDS011;3755;59.316;18.092;2023-07-24T08:29:17;2.05;;;1.00;;
7426;SDS011;3755;59.316;18.092;2023-07-24T08:31:44;1.40;;;1.10;;
7426;SDS011;3755;59.316;18.092;2023-07-24T08:34:12;3.25;;;1.40;;
7426;SDS011;3755;59.316;18.092;2023-07-24T08:36:40;2.67;;;1.48;;
7426;SDS011;3755;59.316;18.092;2023-07-24T08:39:08;2.15;;;0.93;;
7426;SDS011;3755;59.316;18.092;2023-07-24T08:41:36;1.77;;;1.00;;
7426;SDS011;3755;59.316;18.092;2023-07-24T08:44:03;2.03;;;0.90;;
7426;SDS011;3755;59.316;18.092;2023-07-24T08:46:31;2.28;;;1.20;;
7426;SDS011;3755;59.316;18.092;2023-07-24T08:49:03;1.65;;;0.93;;
7426;SDS011;3755;59.316;18.092;2023-07-24T08:51:32;1.98;;;0.90;;
7426;SDS011;3755;59.316;18.092;2023-07-24T08:54:00;2.53;;;1.00;;
7426;SDS011;3755;59.316;18.092;2023-07-24T08:56:29;1.80;;;1.10;;
7426;SDS011;3755;59.316;18.092;2023-07-24T08:58:56;1.48;;;1.13;;
7426;SDS011;3755;59.316;18.092;2023-07-24T09:01:23;1.25;;;0.88;;
7426;SDS011;3755;59.316;18.092;2023-07-24T09:03:51;4.30;;;1.40;;
7426;SDS011;3755;59.316;18.092;2023-07-24T09:06:19;1.45;;;1.13;;
7426;SDS011;3755;59.316;18.092;2023-07-24T09:08:46;3.13;;;1.30;;
7426;SDS011;3755;59.316;18.092;2023-07-24T09:11:15;2.10;;;1.08;;
7426;SDS011;3755;59.316;18.092;2023-07-24T09:13:42;6.10;;;1.35;;
7426;SDS011;3755;59.316;18.092;2023-07-24T09:16:20;2.03;;;1.30;;
7426;SDS011;3755;59.316;18.092;2023-07-24T09:18:48;2.90;;;1.10;;
7426;SDS011;3755;59.316;18.092;2023-07-24T09:21:26;2.15;;;1.10;;
7426;SDS011;3755;59.316;18.092;2023-07-24T09:23:54;1.80;;;0.90;;
7426;SDS011;3755;59.316;18.092;2023-07-24T09:26:24;1.25;;;1.00;;
7426;SDS011;3755;59.316;18.092;2023-07-24T09:28:51;1.45;;;0.80;;
7426;SDS011;3755;59.316;18.092;2023-07-24T09:31:19;1.08;;;0.77;;
7426;SDS011;3755;59.316;18.092;2023-07-24T09:33:46;1.20;;;0.90;;
7426;SDS011;3755;59.316;18.092;2023-07-24T09:36:13;1.60;;;1.00;;
7426;SDS011;3755;59.316;18.092;2023-07-24T09:38:40;2.65;;;1.00;;
7426;SDS011;3755;59.316;18.092;2023-07-24T09:41:08;2.60;;;1.02;;
7426;SDS011;3755;59.316;18.092;2023-07-24T09:43:38;1.50;;;1.05;;
7426;SDS011;3755;59.316;18.092;2023-07-24T09:46:05;3.70;;;1.35;;
7426;SDS011;3755;59.316;18.092;2023-07-24T09:48:33;3.50;;;1.27;;
7426;SDS011;3755;59.316;18.092;2023-07-24T09:51:01;1.33;;;1.05;;
7426;SDS011;3755;59.316;18.092;2023-07-24T09:53:31;2.88;;;1.17;;
7426;SDS011;3755;59.316;18.092;2023-07-24T09:56:00;1.73;;;1.27;;
7426;SDS011;3755;59.316;18.092;2023-07-24T09:58:28;1.60;;;1.30;;
7426;SDS011;3755;59.316;18.092;2023-07-24T10:00:59;2.47;;;1.30;;
7426;SDS011;3755;59.316;18.092;2023-07-24T10:03:28;1.40;;;1.10;;
7426;SDS011;3755;59.316;18.092;2023-07-24T10:05:56;1.83;;;1.05;;
7426;SDS011;3755;59.316;18.092;2023-07-24T10:08:23;1.83;;;1.10;;
7426;SDS011;3755;59.316;18.092;2023-07-24T10:10:53;3.15;;;1.38;;
7426;SDS011;3755;59.316;18.092;2023-07-24T10:13:21;2.78;;;1.58;;
7426;SDS011;3755;59.316;18.092;2023-07-24T10:15:49;1.77;;;1.30;;
7426;SDS011;3755;59.316;18.092;2023-07-24T10:18:25;1.65;;;1.23;;
7426;SDS011;3755;59.316;18.092;2023-07-24T10:20:59;3.53;;;1.40;;
7426;SDS011;3755;59.316;18.092;2023-07-24T10:23:28;1.58;;;1.20;;
7426;SDS011;3755;59.316;18.092;2023-07-24T10:25:55;2.67;;;1.42;;
7426;SDS011;3755;59.316;18.092;2023-07-24T10:28:32;2.03;;;1.23;;
7426;SDS011;3755;59.316;18.092;2023-07-24T10:31:00;2.63;;;1.50;;
7426;SDS011;3755;59.316;18.092;2023-07-24T10:33:31;1.48;;;1.33;;
7426;SDS011;3755;59.316;18.092;2023-07-24T10:36:05;1.20;;;1.08;;
7426;SDS011;3755;59.316;18.092;2023-07-24T10:38:36;1.63;;;1.20;;
7426;SDS011;3755;59.316;18.092;2023-07-24T10:41:05;1.95;;;1.00;;
7426;SDS011;3755;59.316;18.092;2023-07-24T10:43:42;2.10;;;1.50;;
7426;SDS011;3755;59.316;18.092;2023-07-24T10:46:11;1.73;;;1.10;;
7426;SDS011;3755;59.316;18.092;2023-07-24T10:48:43;2.17;;;0.95;;
7426;SDS011;3755;59.316;18.092;2023-07-24T10:51:12;1.67;;;1.27;;
7426;SDS011;3755;59.316;18.092;2023-07-24T10:53:41;1.02;;;0.90;;
7426;SDS011;3755;59.316;18.092;2023-07-24T10:56:10;2.90;;;1.15;;
7426;SDS011;3755;59.316;18.092;2023-07-24T10:58:37;4.40;;;1.65;;
7426;SDS011;3755;59.316;18.092;2023-07-24T11:01:04;2.60;;;1.23;;
7426;SDS011;3755;59.316;18.092;2023-07-24T11:03:32;1.42;;;1.08;;
7426;SDS011;3755;59.316;18.092;2023-07-24T11:06:03;2.95;;;1.10;;
7426;SDS011;3755;59.316;18.092;2023-07-24T11:08:30;4.80;;;1.20;;
7426;SDS011;3755;59.316;18.092;2023-07-24T11:10:59;1.60;;;1.20;;
7426;SDS011;3755;59.316;18.092;2023-07-24T11:13:28;1.55;;;1.00;;
7426;SDS011;3755;59.316;18.092;2023-07-24T11:15:55;3.38;;;1.13;;
7426;SDS011;3755;59.316;18.092;2023-07-24T11:18:30;1.85;;;1.15;;
7426;SDS011;3755;59.316;18.092;2023-07-24T11:20:57;2.00;;;0.93;;
7426;SDS011;3755;59.316;18.092;2023-07-24T11:23:25;0.95;;;0.85;;
7426;SDS011;3755;59.316;18.092;2023-07-24T11:25:56;1.88;;;1.20;;
7426;SDS011;3755;59.316;18.092;2023-07-24T11:28:23;1.75;;;0.90;;
7426;SDS011;3755;59.316;18.092;2023-07-24T11:30:50;3.45;;;1.40;;
7426;SDS011;3755;59.316;18.092;2023-07-24T11:33:18;2.00;;;1.10;;
7426;SDS011;3755;59.316;18.092;2023-07-24T11:35:45;1.38;;;0.90;;
7426;SDS011;3755;59.316;18.092;2023-07-24T11:38:13;3.00;;;1.38;;
7426;SDS011;3755;59.316;18.092;2023-07-24T11:40:42;2.30;;;1.17;;
7426;SDS011;3755;59.316;18.092;2023-07-24T11:43:17;1.25;;;0.98;;
7426;SDS011;3755;59.316;18.092;2023-07-24T11:45:48;1.98;;;1.10;;
7426;SDS011;3755;59.316;18.092;2023-07-24T11:48:18;2.85;;;1.02;;
7426;SDS011;3755;59.316;18.092;2023-07-24T11:50:46;2.17;;;1.00;;
7426;SDS011;3755;59.316;18.092;2023-07-24T11:53:20;1.17;;;1.00;;
7426;SDS011;3755;59.316;18.092;2023-07-24T11:55:50;2.78;;;1.17;;
7426;SDS011;3755;59.316;18.092;2023-07-24T11:58:18;3.05;;;1.35;;
7426;SDS011;3755;59.316;18.092;2023-07-24T12:00:47;1.90;;;1.20;;
7426;SDS011;3755;59.316;18.092;2023-07-24T12:03:18;1.95;;;1.10;;
7426;SDS011;3755;59.316;18.092;2023-07-24T12:05:46;1.27;;;0.93;;
7426;SDS011;3755;59.316;18.092;2023-07-24T12:08:15;1.17;;;0.90;;
7426;SDS011;3755;59.316;18.092;2023-07-24T12:10:44;1.40;;;0.90;;
7426;SDS011;3755;59.316;18.092;2023-07-24T12:13:12;1.77;;;0.90;;
7426;SDS011;3755;59.316;18.092;2023-07-24T12:15:40;0.95;;;0.80;;
7426;SDS011;3755;59.316;18.092;2023-07-24T12:18:07;3.03;;;0.98;;
7426;SDS011;3755;59.316;18.092;2023-07-24T12:20:34;1.88;;;0.70;;
7426;SDS011;3755;59.316;18.092;2023-07-24T12:23:01;1.20;;;0.90;;
7426;SDS011;3755;59.316;18.092;2023-07-24T12:25:29;2.03;;;0.80;;
7426;SDS011;3755;59.316;18.092;2023-07-24T12:27:56;1.83;;;0.88;;
7426;SDS011;3755;59.316;18.092;2023-07-24T12:30:25;1.23;;;0.70;;
7426;SDS011;3755;59.316;18.092;2023-07-24T12:32:52;4.45;;;1.13;;
7426;SDS011;3755;59.316;18.092;2023-07-24T12:35:19;2.15;;;0.52;;
7426;SDS011;3755;59.316;18.092;2023-07-24T12:37:46;2.42;;;0.70;;
7426;SDS011;3755;59.316;18.092;2023-07-24T12:40:14;1.10;;;0.60;;
7426;SDS011;3755;59.316;18.092;2023-07-24T12:42:41;1.48;;;0.60;;
7426;SDS011;3755;59.316;18.092;2023-07-24T12:45:08;2.08;;;0.85;;
7426;SDS011;3755;59.316;18.092;2023-07-24T12:47:37;2.25;;;0.73;;
7426;SDS011;3755;59.316;18.092;2023-07-24T12:50:04;1.58;;;0.60;;
7426;SDS011;3755;59.316;18.092;2023-07-24T12:52:32;3.35;;;0.98;;
7426;SDS011;3755;59.316;18.092;2023-07-24T12:54:59;1.63;;;0.60;;
7426;SDS011;3755;59.316;18.092;2023-07-24T12:57:26;2.03;;;0.77;;
7426;SDS011;3755;59.316;18.092;2023-07-24T12:59:53;1.33;;;0.95;;
7426;SDS011;3755;59.316;18.092;2023-07-24T13:02:21;1.52;;;0.70;;
7426;SDS011;3755;59.316;18.092;2023-07-24T13:04:49;0.80;;;0.52;;
7426;SDS011;3755;59.316;18.092;2023-07-24T13:07:17;3.15;;;0.80;;
7426;SDS011;3755;59.316;18.092;2023-07-24T13:09:44;0.90;;;0.77;;
7426;SDS011;3755;59.316;18.092;2023-07-24T13:12:11;2.00;;;0.80;;
7426;SDS011;3755;59.316;18.092;2023-07-24T13:14:38;1.77;;;0.90;;
7426;SDS011;3755;59.316;18.092;2023-07-24T13:17:05;1.52;;;0.80;;
7426;SDS011;3755;59.316;18.092;2023-07-24T13:19:33;1.70;;;0.90;;
7426;SDS011;3755;59.316;18.092;2023-07-24T13:22:02;1.50;;;0.80;;
7426;SDS011;3755;59.316;18.092;2023-07-24T13:24:29;5.85;;;1.13;;
7426;SDS011;3755;59.316;18.092;2023-07-24T13:26:56;1.73;;;0.85;;
7426;SDS011;3755;59.316;18.092;2023-07-24T13:29:23;0.70;;;0.52;;
7426;SDS011;3755;59.316;18.092;2023-07-24T13:31:50;1.15;;;0.68;;
7426;SDS011;3755;59.316;18.092;2023-07-24T13:34:18;2.72;;;0.85;;
7426;SDS011;3755;59.316;18.092;2023-07-24T13:36:45;1.33;;;0.80;;
7426;SDS011;3755;59.316;18.092;2023-07-24T13:39:14;0.85;;;0.68;;
7426;SDS011;3755;59.316;18.092;2023-07-24T13:41:42;3.25;;;1.00;;
7426;SDS011;3755;59.316;18.092;2023-07-24T13:44:10;5.88;;;1.30;;
7426;SDS011;3755;59.316;18.092;2023-07-24T13:46:37;3.40;;;0.90;;
7426;SDS011;3755;59.316;18.092;2023-07-24T13:49:05;1.30;;;0.70;;
7426;SDS011;3755;59.316;18.092;2023-07-24T13:51:33;2.38;;;0.90;;
7426;SDS011;3755;59.316;18.092;2023-07-24T13:54:00;3.17;;;1.10;;
7426;SDS011;3755;59.316;18.092;2023-07-24T13:56:29;1.50;;;0.80;;
7426;SDS011;3755;59.316;18.092;2023-07-24T13:58:58;1.10;;;0.85;;
7426;SDS011;3755;59.316;18.092;2023-07-24T14:01:25;2.25;;;1.00;;
7426;SDS011;3755;59.316;18.092;2023-07-24T14:03:52;1.48;;;1.02;;
7426;SDS011;3755;59.316;18.092;2023-07-24T14:06:19;1.30;;;0.80;;
7426;SDS011;3755;59.316;18.092;2023-07-24T14:08:47;1.10;;;0.90;;
7426;SDS011;3755;59.316;18.092;2023-07-24T14:11:15;1.48;;;0.57;;
7426;SDS011;3755;59.316;18.092;2023-07-24T14:13:43;0.70;;;0.70;;
7426;SDS011;3755;59.316;18.092;2023-07-24T14:16:11;0.95;;;0.70;;
7426;SDS011;3755;59.316;18.092;2023-07-24T14:18:41;1.60;;;0.82;;
7426;SDS011;3755;59.316;18.092;2023-07-24T14:21:08;2.72;;;0.82;;
7426;SDS011;3755;59.316;18.092;2023-07-24T14:23:35;0.90;;;0.70;;
7426;SDS011;3755;59.316;18.092;2023-07-24T14:26:02;1.25;;;0.70;;
7426;SDS011;3755;59.316;18.092;2023-07-24T14:28:29;2.28;;;0.98;;
7426;SDS011;3755;59.316;18.092;2023-07-24T14:30:58;1.00;;;0.70;;
7426;SDS011;3755;59.316;18.092;2023-07-24T14:33:26;1.35;;;0.70;;
7426;SDS011;3755;59.316;18.092;2023-07-24T14:35:53;2.25;;;0.90;;
7426;SDS011;3755;59.316;18.092;2023-07-24T14:38:21;2.15;;;1.25;;
7426;SDS011;3755;59.316;18.092;2023-07-24T14:40:48;2.67;;;0.90;;
7426;SDS011;3755;59.316;18.092;2023-07-24T14:43:15;3.42;;;1.20;;
7426;SDS011;3755;59.316;18.092;2023-07-24T14:45:42;1.60;;;0.80;;
7426;SDS011;3755;59.316;18.092;2023-07-24T14:48:11;1.73;;;0.80;;
7426;SDS011;3755;59.316;18.092;2023-07-24T14:50:39;1.25;;;0.60;;
7426;SDS011;3755;59.316;18.092;2023-07-24T14:53:07;1.27;;;0.90;;
7426;SDS011;3755;59.316;18.092;2023-07-24T14:55:34;1.55;;;0.93;;
7426;SDS011;3755;59.316;18.092;2023-07-24T14:58:01;1.35;;;0.80;;
7426;SDS011;3755;59.316;18.092;2023-07-24T15:00:29;1.30;;;0.90;;
7426;SDS011;3755;59.316;18.092;2023-07-24T15:02:56;2.13;;;0.85;;
7426;SDS011;3755;59.316;18.092;2023-07-24T15:05:25;1.40;;;0.98;;